Time;durP1;ratioP1;P1;durP2;ratioP2;P2;SDS_P1;SDS_P2;PMS_P1;PMS_P2;Temp;Humidity;BMP_temperature;BMP_pressure;BME280_temperature;BME280_humidity;BME280_pressure;Samples;Min_cycle;Max_cycle;Signal;HPM_P1;HPM_P2
2023/06/24 00:00:13;;;;;;;10.05;8.52;;;;;;;;;;4921714;28;20050;-88
2023/06/24 00:02:41;;;;;;;9.73;8.75;;;;;;;;;;4965569;28;20069;-88
2023/06/24 00:05:08;;;;;;;10.02;8.95;;;;;;;;;;4932337;28;20746;-88
2023/06/24 00:07:43;;;;;;;9.47;8.50;;;;;;;;;;4944089;28;20126;-88
2023/06/24 00:10:15;;;;;;;10.70;9.45;;;;;;;;;;4946828;28;20053;-88
2023/06/24 00:12:41;;;;;;;11.25;9.68;;;;;;;;;;4941892;28;20042;-88
2023/06/24 00:15:11;;;;;;;10.13;9.15;;;;;;;;;;4940417;28;20073;-88
2023/06/24 00:17:37;;;;;;;10.15;9.15;;;;;;;;;;4930906;28;20057;-87
2023/06/24 00:20:05;;;;;;;11.20;10.20;;;;;;;;;;4929812;28;20050;-87
2023/06/24 00:22:31;;;;;;;9.57;8.60;;;;;;;;;;4935135;28;20069;-88
2023/06/24 00:24:57;;;;;;;10.10;9.10;;;;;;;;;;4914336;28;20084;-88
2023/06/24 00:27:23;;;;;;;10.82;8.55;;;;;;;;;;4921861;28;20704;-88
2023/06/24 00:29:49;;;;;;;9.77;8.68;;;;;;;;;;4918217;28;20228;-88
2023/06/24 00:32:15;;;;;;;9.55;8.65;;;;;;;;;;4939024;28;20520;-88
2023/06/24 00:34:43;;;;;;;9.73;8.73;;;;;;;;;;4936304;28;20064;-88
2023/06/24 00:37:09;;;;;;;9.38;8.48;;;;;;;;;;4933980;28;20042;-88
2023/06/24 00:39:35;;;;;;;10.43;8.90;;;;;;;;;;4922169;28;20051;-88
2023/06/24 00:42:01;;;;;;;11.43;9.48;;;;;;;;;;4954965;28;20030;-88
2023/06/24 00:44:28;;;;;;;10.10;9.00;;;;;;;;;;4944869;28;20413;-88
2023/06/24 00:46:54;;;;;;;9.38;8.45;;;;;;;;;;4934134;28;20042;-88
2023/06/24 00:49:20;;;;;;;9.45;8.55;;;;;;;;;;4933057;28;20042;-89
2023/06/24 00:51:50;;;;;;;9.85;8.85;;;;;;;;;;4931098;28;20053;-88
2023/06/24 00:54:19;;;;;;;9.52;8.60;;;;;;;;;;4933739;28;20689;-87
2023/06/24 00:56:46;;;;;;;9.52;8.45;;;;;;;;;;4914464;28;20053;-88
2023/06/24 00:59:15;;;;;;;10.25;8.70;;;;;;;;;;4947606;28;20077;-88
2023/06/24 01:01:42;;;;;;;9.77;8.88;;;;;;;;;;4950231;28;20577;-87
2023/06/24 01:04:08;;;;;;;8.50;7.78;;;;;;;;;;4913137;28;20135;-88
2023/06/24 01:06:35;;;;;;;10.13;8.18;;;;;;;;;;4941687;28;20045;-88
2023/06/24 01:09:02;;;;;;;8.37;7.53;;;;;;;;;;4939386;28;20054;-88
2023/06/24 01:11:28;;;;;;;8.63;7.32;;;;;;;;;;4942852;28;20383;-87
2023/06/24 01:13:54;;;;;;;9.07;8.18;;;;;;;;;;4952869;28;20108;-87
2023/06/24 01:16:30;;;;;;;9.68;8.23;;;;;;;;;;4942023;28;20559;-88
2023/06/24 01:19:00;;;;;;;8.73;7.93;;;;;;;;;;4921003;28;20038;-87
2023/06/24 01:21:34;;;;;;;8.95;8.15;;;;;;;;;;4947763;28;20043;-88
2023/06/24 01:24:20;;;;;;;9.35;8.30;;;;;;;;;;4943032;28;20381;-88
2023/06/24 01:27:05;;;;;;;8.52;7.72;;;;;;;;;;4959199;28;20038;-88
2023/06/24 01:29:34;;;;;;;8.10;7.30;;;;;;;;;;4962246;28;20074;-88
2023/06/24 01:32:04;;;;;;;8.00;7.20;;;;;;;;;;4941419;28;20042;-88
2023/06/24 01:34:40;;;;;;;8.27;7.47;;;;;;;;;;4947674;28;20046;-87
2023/06/24 01:37:11;;;;;;;8.68;7.88;;;;;;;;;;4956833;28;20042;-88
2023/06/24 01:39:38;;;;;;;9.85;8.68;;;;;;;;;;4927805;28;20046;-88
2023/06/24 01:42:07;;;;;;;9.35;8.48;;;;;;;;;;4930472;28;20641;-88
2023/06/24 01:44:33;;;;;;;10.05;8.55;;;;;;;;;;4947741;28;20046;-88
2023/06/24 01:46:59;;;;;;;8.82;7.93;;;;;;;;;;4925309;28;20038;-87
2023/06/24 01:49:26;;;;;;;11.00;8.20;;;;;;;;;;4941105;28;20037;-88
2023/06/24 01:51:52;;;;;;;7.97;7.25;;;;;;;;;;4922153;28;20066;-89
2023/06/24 01:54:22;;;;;;;8.90;8.07;;;;;;;;;;4956795;28;20042;-88
2023/06/24 01:56:48;;;;;;;8.70;7.90;;;;;;;;;;4934116;28;20242;-87
2023/06/24 01:59:14;;;;;;;7.93;7.25;;;;;;;;;;4941790;28;20050;-88
2023/06/24 02:01:40;;;;;;;8.10;7.40;;;;;;;;;;4941161;28;20137;-87
2023/06/24 02:04:07;;;;;;;10.45;8.23;;;;;;;;;;4932341;28;20633;-87
2023/06/24 02:06:33;;;;;;;8.25;7.45;;;;;;;;;;4937366;28;20500;-87
2023/06/24 02:08:59;;;;;;;8.05;7.25;;;;;;;;;;4932541;28;20398;-88
2023/06/24 02:11:26;;;;;;;7.47;6.80;;;;;;;;;;4928373;28;20049;-88
2023/06/24 02:13:52;;;;;;;8.63;7.80;;;;;;;;;;4928970;28;20133;-87
2023/06/24 02:16:18;;;;;;;8.48;7.65;;;;;;;;;;4945206;28;20128;-88
2023/06/24 02:18:44;;;;;;;8.93;7.82;;;;;;;;;;4953132;28;20046;-88
2023/06/24 02:21:11;;;;;;;8.80;8.00;;;;;;;;;;4938199;28;20073;-87
2023/06/24 02:23:37;;;;;;;9.10;8.10;;;;;;;;;;4930912;28;20038;-87
2023/06/24 02:26:03;;;;;;;8.70;7.85;;;;;;;;;;4941270;28;20505;-89
2023/06/24 02:28:29;;;;;;;10.43;9.45;;;;;;;;;;4944322;28;20049;-87
2023/06/24 02:30:55;;;;;;;9.93;8.93;;;;;;;;;;4953626;28;20034;-88
2023/06/24 02:33:21;;;;;;;9.73;8.75;;;;;;;;;;4945390;28;20665;-88
2023/06/24 02:35:47;;;;;;;9.75;8.75;;;;;;;;;;4925563;28;20042;-87
2023/06/24 02:38:14;;;;;;;10.00;8.65;;;;;;;;;;4958465;28;20038;-87
2023/06/24 02:40:40;;;;;;;10.15;9.18;;;;;;;;;;4944208;28;20046;-87
2023/06/24 02:43:06;;;;;;;9.68;8.75;;;;;;;;;;4962559;28;22803;-87
2023/06/24 02:45:32;;;;;;;10.15;8.93;;;;;;;;;;4930827;28;20038;-88
2023/06/24 02:47:58;;;;;;;9.38;8.30;;;;;;;;;;4954361;28;20070;-87
2023/06/24 02:50:24;;;;;;;9.23;8.30;;;;;;;;;;4943115;28;20512;-88
2023/06/24 02:52:50;;;;;;;9.38;8.48;;;;;;;;;;4940665;28;20053;-87
2023/06/24 02:55:16;;;;;;;8.80;7.93;;;;;;;;;;4946343;28;20084;-87
2023/06/24 02:57:42;;;;;;;10.80;8.30;;;;;;;;;;4947260;28;20501;-87
2023/06/24 03:00:12;;;;;;;9.52;8.73;;;;;;;;;;4945154;28;20051;-88
2023/06/24 03:02:38;;;;;;;10.57;9.48;;;;;;;;;;4943389;28;20132;-88
2023/06/24 03:05:04;;;;;;;10.73;9.73;;;;;;;;;;4940797;28;20128;-88
2023/06/24 03:07:30;;;;;;;10.23;9.23;;;;;;;;;;4941286;28;20129;-87
2023/06/24 03:09:57;;;;;;;11.55;9.30;;;;;;;;;;4923087;28;20173;-88
2023/06/24 03:12:23;;;;;;;11.52;9.65;;;;;;;;;;4945398;28;20077;-87
2023/06/24 03:14:50;;;;;;;9.90;8.85;;;;;;;;;;4950997;28;20046;-88
2023/06/24 03:17:16;;;;;;;9.45;8.55;;;;;;;;;;4943121;28;20042;-88
2023/06/24 03:19:42;;;;;;;9.85;8.85;;;;;;;;;;4955842;28;20107;-90
2023/06/24 03:22:08;;;;;;;9.90;8.90;;;;;;;;;;4917248;28;20035;-87
2023/06/24 03:24:34;;;;;;;10.20;9.20;;;;;;;;;;4959047;28;20085;-88
2023/06/24 03:27:00;;;;;;;8.88;8.07;;;;;;;;;;4922293;28;20038;-88
2023/06/24 03:29:26;;;;;;;9.82;8.82;;;;;;;;;;4950246;28;20046;-88
2023/06/24 03:31:52;;;;;;;10.00;8.98;;;;;;;;;;4943113;28;20051;-88
2023/06/24 03:34:18;;;;;;;10.90;9.48;;;;;;;;;;4934353;28;20096;-88
2023/06/24 03:36:47;;;;;;;12.85;8.90;;;;;;;;;;4924983;28;21851;-88
2023/06/24 03:39:13;;;;;;;10.32;9.30;;;;;;;;;;4942666;28;20490;-88
2023/06/24 03:41:39;;;;;;;12.73;9.30;;;;;;;;;;4958361;28;20049;-88
2023/06/24 03:44:05;;;;;;;10.43;9.43;;;;;;;;;;4950384;28;20046;-88
2023/06/24 03:46:32;;;;;;;10.38;9.35;;;;;;;;;;4951550;28;20365;-89
2023/06/24 03:48:59;;;;;;;13.73;9.47;;;;;;;;;;4922659;28;20034;-89
2023/06/24 03:51:25;;;;;;;10.60;9.32;;;;;;;;;;4929893;28;20042;-88
2023/06/24 03:53:51;;;;;;;12.20;9.43;;;;;;;;;;4938851;28;20039;-89
2023/06/24 03:56:18;;;;;;;10.43;9.00;;;;;;;;;;4943023;28;20151;-89
2023/06/24 03:58:44;;;;;;;11.65;10.23;;;;;;;;;;4955206;28;20092;-88
2023/06/24 04:01:10;;;;;;;10.15;8.50;;;;;;;;;;4938002;28;20047;-88
2023/06/24 04:03:36;;;;;;;10.15;9.25;;;;;;;;;;4943111;28;20133;-88
2023/06/24 04:06:02;;;;;;;10.73;9.68;;;;;;;;;;4940477;28;20681;-88
2023/06/24 04:08:31;;;;;;;10.50;9.45;;;;;;;;;;4943371;28;20038;-88
2023/06/24 04:10:59;;;;;;;9.98;8.98;;;;;;;;;;4957256;28;20050;-89
2023/06/24 04:13:25;;;;;;;11.27;9.60;;;;;;;;;;4945918;28;20557;-88
2023/06/24 04:15:52;;;;;;;10.48;8.52;;;;;;;;;;4939049;28;20057;-88
2023/06/24 04:18:19;;;;;;;12.23;9.68;;;;;;;;;;4932106;28;20727;-88
2023/06/24 04:20:45;;;;;;;10.02;8.95;;;;;;;;;;4956581;28;20459;-89
2023/06/24 04:23:14;;;;;;;10.48;9.48;;;;;;;;;;4925746;28;20047;-89
2023/06/24 04:25:40;;;;;;;9.63;8.73;;;;;;;;;;4946215;28;20050;-89
2023/06/24 04:28:06;;;;;;;9.45;8.55;;;;;;;;;;4942449;28;20046;-88
2023/06/24 04:30:32;;;;;;;9.98;9.07;;;;;;;;;;4969469;28;20433;-88
2023/06/24 04:32:58;;;;;;;11.30;9.50;;;;;;;;;;4942579;28;20042;-87
2023/06/24 04:35:25;;;;;;;10.82;9.82;;;;;;;;;;4949895;28;20090;-88
2023/06/24 04:37:51;;;;;;;12.88;9.73;;;;;;;;;;4934761;28;20130;-89
2023/06/24 04:40:20;;;;;;;11.48;9.85;;;;;;;;;;4925475;28;20969;-89
2023/06/24 04:42:46;;;;;;;13.80;10.40;;;;;;;;;;4919373;28;20049;-87
2023/06/24 04:45:12;;;;;;;11.77;10.48;;;;;;;;;;4944289;28;20085;-88
2023/06/24 04:47:38;;;;;;;11.45;10.13;;;;;;;;;;4951823;28;20064;-88
2023/06/24 04:50:05;;;;;;;11.63;10.43;;;;;;;;;;4922731;28;21131;-88
2023/06/24 04:52:31;;;;;;;11.25;9.98;;;;;;;;;;4958424;28;20041;-88
2023/06/24 04:54:57;;;;;;;11.48;10.27;;;;;;;;;;4934194;28;20146;-88
2023/06/24 04:57:23;;;;;;;11.30;10.20;;;;;;;;;;4941040;28;20046;-88
2023/06/24 04:59:49;;;;;;;10.73;9.63;;;;;;;;;;4939007;28;20058;-88
2023/06/24 05:02:16;;;;;;;11.23;10.15;;;;;;;;;;4953209;28;20043;-88
2023/06/24 05:04:42;;;;;;;11.80;9.57;;;;;;;;;;4938829;28;20046;-88
2023/06/24 05:07:08;;;;;;;16.23;11.27;;;;;;;;;;4923217;28;20082;-88
2023/06/24 05:09:37;;;;;;;13.30;10.70;;;;;;;;;;4948941;28;20133;-88
2023/06/24 05:12:03;;;;;;;12.02;9.52;;;;;;;;;;4939339;28;20041;-89
2023/06/24 05:14:29;;;;;;;12.00;10.68;;;;;;;;;;4942231;28;20038;-89
2023/06/24 05:16:55;;;;;;;11.18;10.18;;;;;;;;;;4929237;28;20049;-88
2023/06/24 05:19:21;;;;;;;13.30;10.27;;;;;;;;;;4935801;28;20050;-88
2023/06/24 05:21:47;;;;;;;10.98;9.85;;;;;;;;;;4946734;28;20038;-88
2023/06/24 05:24:14;;;;;;;12.88;9.77;;;;;;;;;;4941401;28;20388;-89
2023/06/24 05:26:40;;;;;;;10.73;9.73;;;;;;;;;;4956207;28;20059;-87
2023/06/24 05:29:06;;;;;;;12.05;10.75;;;;;;;;;;4943401;28;20104;-89
2023/06/24 05:31:33;;;;;;;12.07;10.40;;;;;;;;;;4916046;28;20056;-88
2023/06/24 05:34:00;;;;;;;14.25;12.00;;;;;;;;;;4929643;28;20557;-86
2023/06/24 05:36:27;;;;;;;12.95;11.65;;;;;;;;;;4973407;28;20512;-86
2023/06/24 05:38:53;;;;;;;11.97;10.70;;;;;;;;;;4971409;28;20132;-85
2023/06/24 05:41:20;;;;;;;15.02;11.93;;;;;;;;;;4942302;28;21149;-86
2023/06/24 05:43:46;;;;;;;12.80;11.50;;;;;;;;;;4952511;28;20057;-85
2023/06/24 05:46:14;;;;;;;12.15;10.95;;;;;;;;;;4943569;28;20136;-85
2023/06/24 05:48:42;;;;;;;;;;;;;;;;;;4958705;28;20140;-86
2023/06/24 05:51:09;;;;;;;14.25;12.75;;;;;;;;;;4969299;28;19940;-86
2023/06/24 05:53:36;;;;;;;17.33;12.77;;;;;;;;;;4978223;28;20038;-86
2023/06/24 05:56:04;;;;;;;14.48;12.23;;;;;;;;;;4955964;28;20477;-86
2023/06/24 05:58:31;;;;;;;14.30;11.47;;;;;;;;;;4957142;28;20061;-86
2023/06/24 06:01:00;;;;;;;13.68;12.07;;;;;;;;;;4938101;28;20392;-86
2023/06/24 06:03:27;;;;;;;12.15;10.63;;;;;;;;;;4956150;28;20846;-86
2023/06/24 06:05:54;;;;;;;15.30;12.18;;;;;;;;;;4938331;28;20096;-86
2023/06/24 06:08:22;;;;;;;13.15;11.07;;;;;;;;;;4960472;28;20107;-86
2023/06/24 06:10:49;;;;;;;13.50;12.07;;;;;;;;;;4937353;28;20088;-86
2023/06/24 06:13:16;;;;;;;13.77;12.48;;;;;;;;;;4955430;28;20569;-87
2023/06/24 06:15:43;;;;;;;14.02;11.70;;;;;;;;;;4949149;28;20045;-87
2023/06/24 06:18:11;;;;;;;14.38;11.88;;;;;;;;;;4946658;28;20053;-87
2023/06/24 06:20:38;;;;;;;12.43;11.13;;;;;;;;;;4961367;28;20057;-87
2023/06/24 06:23:05;;;;;;;12.90;11.32;;;;;;;;;;4950342;28;20031;-87
2023/06/24 06:25:32;;;;;;;13.20;11.33;;;;;;;;;;4958479;28;20375;-87
2023/06/24 06:28:00;;;;;;;12.55;10.27;;;;;;;;;;4943435;28;20308;-90
2023/06/24 06:30:27;;;;;;;11.90;10.53;;;;;;;;;;4939635;28;20046;-87
2023/06/24 06:32:55;;;;;;;12.50;11.03;;;;;;;;;;4935623;28;20034;-87
2023/06/24 06:35:21;;;;;;;12.63;10.85;;;;;;;;;;4957150;28;20047;-88
2023/06/24 06:37:52;;;;;;;10.93;9.73;;;;;;;;;;4950457;28;20104;-88
2023/06/24 06:40:21;;;;;;;12.73;11.13;;;;;;;;;;4956762;28;20070;-87
2023/06/24 06:42:49;;;;;;;11.45;10.35;;;;;;;;;;4933765;28;20070;-88
2023/06/24 06:45:15;;;;;;;10.33;9.27;;;;;;;;;;4958301;28;20130;-88
2023/06/24 06:47:42;;;;;;;10.85;9.13;;;;;;;;;;4958925;28;20108;-88
2023/06/24 06:50:10;;;;;;;9.53;8.63;;;;;;;;;;4928641;28;20044;-87
2023/06/24 06:52:38;;;;;;;9.45;8.55;;;;;;;;;;4955651;28;20316;-88
2023/06/24 06:55:06;;;;;;;10.35;9.27;;;;;;;;;;4911901;28;20046;-88
2023/06/24 06:57:33;;;;;;;9.40;8.50;;;;;;;;;;4968811;28;20051;-88
2023/06/24 06:59:59;;;;;;;8.95;8.15;;;;;;;;;;4947045;28;20090;-88
2023/06/24 07:02:26;;;;;;;9.23;8.38;;;;;;;;;;4968124;28;20405;-90
2023/06/24 07:04:52;;;;;;;9.45;8.35;;;;;;;;;;4937142;28;20042;-88
2023/06/24 07:07:19;;;;;;;8.85;7.88;;;;;;;;;;4955859;28;20121;-89
2023/06/24 07:09:46;;;;;;;9.70;7.70;;;;;;;;;;4954091;28;20045;-89
2023/06/24 07:12:13;;;;;;;9.48;7.55;;;;;;;;;;4941419;28;20302;-88
2023/06/24 07:14:41;;;;;;;7.78;7.07;;;;;;;;;;4942886;28;20162;-88
2023/06/24 07:17:08;;;;;;;9.93;7.93;;;;;;;;;;4950833;28;20051;-88
2023/06/24 07:19:36;;;;;;;8.63;7.72;;;;;;;;;;4956861;28;20038;-89
2023/06/24 07:22:03;;;;;;;9.25;6.95;;;;;;;;;;4937279;28;20065;-89
2023/06/24 07:24:30;;;;;;;9.20;7.77;;;;;;;;;;4967551;28;20767;-88
2023/06/24 07:26:58;;;;;;;8.50;7.63;;;;;;;;;;4944003;28;20129;-88
2023/06/24 07:29:25;;;;;;;9.00;8.00;;;;;;;;;;4936895;28;20038;-88
2023/06/24 07:31:53;;;;;;;8.10;7.07;;;;;;;;;;4927060;28;20038;-89
2023/06/24 07:34:20;;;;;;;8.13;7.32;;;;;;;;;;4921796;28;20034;-89
2023/06/24 07:36:47;;;;;;;8.20;7.35;;;;;;;;;;4967782;28;20042;-88
2023/06/24 07:39:14;;;;;;;8.18;7.38;;;;;;;;;;4960114;28;20072;-89
2023/06/24 07:41:42;;;;;;;11.32;8.80;;;;;;;;;;4963285;28;20042;-88
2023/06/24 07:44:09;;;;;;;;;;;;;;;;;;4945508;28;20133;-89
2023/06/24 07:46:36;;;;;;;9.52;7.60;;;;;;;;;;4934401;28;19921;-89
2023/06/24 07:49:08;;;;;;;8.33;7.53;;;;;;;;;;4945424;28;20125;-89
2023/06/24 07:51:36;;;;;;;9.43;8.38;;;;;;;;;;4971135;28;20049;-88
2023/06/24 07:54:03;;;;;;;9.65;8.70;;;;;;;;;;4933576;28;20043;-89
2023/06/24 07:56:30;;;;;;;11.65;8.00;;;;;;;;;;4955332;28;20053;-88
2023/06/24 07:58:57;;;;;;;11.23;7.90;;;;;;;;;;4947729;28;20062;-89
2023/06/24 08:01:25;;;;;;;10.25;8.30;;;;;;;;;;4939235;28;20054;-89
2023/06/24 08:03:52;;;;;;;8.95;7.03;;;;;;;;;;4958899;28;20039;-90
2023/06/24 08:06:19;;;;;;;9.20;7.45;;;;;;;;;;4964360;28;20084;-91
2023/06/24 08:08:47;;;;;;;9.40;8.50;;;;;;;;;;4950165;28;20049;-89
2023/06/24 08:11:14;;;;;;;8.10;7.30;;;;;;;;;;4952489;28;20078;-89
2023/06/24 08:13:41;;;;;;;13.13;7.50;;;;;;;;;;4941095;28;20103;-90
2023/06/24 08:16:07;;;;;;;9.70;7.20;;;;;;;;;;4954268;28;20089;-89
2023/06/24 08:18:33;;;;;;;7.55;6.70;;;;;;;;;;4937576;28;20084;-91
2023/06/24 08:20:59;;;;;;;8.73;7.68;;;;;;;;;;4922076;28;20043;-91
2023/06/24 08:23:25;;;;;;;8.30;6.65;;;;;;;;;;4923060;28;20459;-90
2023/06/24 08:25:51;;;;;;;8.60;7.72;;;;;;;;;;4928472;28;20048;-91
2023/06/24 08:28:18;;;;;;;7.45;6.53;;;;;;;;;;4967789;28;20070;-90
2023/06/24 08:30:44;;;;;;;10.48;7.75;;;;;;;;;;4940968;28;20046;-91
2023/06/24 08:33:10;;;;;;;7.85;6.60;;;;;;;;;;4939403;28;20432;-91
2023/06/24 08:35:36;;;;;;;8.07;7.28;;;;;;;;;;4938457;28;20042;-90
2023/06/24 08:38:02;;;;;;;9.82;8.05;;;;;;;;;;4954227;28;20504;-90
2023/06/24 08:40:28;;;;;;;7.35;6.47;;;;;;;;;;4940988;28;20482;-91
2023/06/24 08:42:54;;;;;;;9.15;7.22;;;;;;;;;;4930119;28;20058;-90
2023/06/24 08:45:20;;;;;;;8.65;7.75;;;;;;;;;;4933900;28;20109;-91
2023/06/24 08:47:48;;;;;;;8.50;6.90;;;;;;;;;;4958201;28;20061;-90
2023/06/24 08:50:14;;;;;;;9.40;6.70;;;;;;;;;;4948930;28;20046;-92
2023/06/24 08:52:42;;;;;;;6.82;6.13;;;;;;;;;;4953879;28;20066;-91
2023/06/24 08:55:09;;;;;;;6.63;6.03;;;;;;;;;;4940606;28;20080;-91
2023/06/24 08:57:35;;;;;;;10.50;5.80;;;;;;;;;;4966322;28;20078;-92
2023/06/24 09:00:01;;;;;;;8.93;5.82;;;;;;;;;;4928277;28;20065;-90
2023/06/24 09:02:27;;;;;;;7.40;6.05;;;;;;;;;;4924348;28;20046;-92
2023/06/24 09:04:54;;;;;;;8.02;6.32;;;;;;;;;;4935628;28;20044;-92
2023/06/24 09:07:35;;;;;;;7.88;6.75;;;;;;;;;;4940479;28;20042;-91
2023/06/24 09:10:06;;;;;;;8.65;6.90;;;;;;;;;;4939171;28;20100;-92
2023/06/24 09:12:45;;;;;;;8.30;7.10;;;;;;;;;;4945886;28;20082;-91
2023/06/24 09:15:25;;;;;;;8.57;6.65;;;;;;;;;;4893103;28;20039;-91
2023/06/24 09:18:33;;;;;;;;;;;;;;;;;;;;;
2023/06/24 09:21:05;;;;;;;5.22;4.60;;;;;;;;;;4950921;28;20670;-92
2023/06/24 09:23:40;;;;;;;5.20;4.70;;;;;;;;;;4939074;28;20603;-92
2023/06/24 09:29:56;;;;;;;6.90;5.28;;;;;;;;;;4909343;29;20687;-92
2023/06/24 09:32:24;;;;;;;5.75;5.20;;;;;;;;;;4954513;28;20611;-92
2023/06/24 09:34:56;;;;;;;5.38;4.88;;;;;;;;;;4926694;28;20493;-92
2023/06/24 09:37:30;;;;;;;6.05;5.43;;;;;;;;;;4936525;28;20497;-92
2023/06/24 09:40:14;;;;;;;;;;;;;;;;;;;;;
2023/06/24 09:42:52;;;;;;;5.85;4.60;;;;;;;;;;4935323;28;20067;-93
2023/06/24 09:45:27;;;;;;;7.07;5.05;;;;;;;;;;4926297;29;20047;-92
2023/06/24 09:47:58;;;;;;;5.75;5.03;;;;;;;;;;4904296;28;20052;-92
2023/06/24 09:50:28;;;;;;;7.50;6.57;;;;;;;;;;4917201;28;20572;-93
2023/06/24 09:52:54;;;;;;;5.45;4.90;;;;;;;;;;4911685;28;20081;-92
2023/06/24 09:55:31;;;;;;;4.95;4.45;;;;;;;;;;4928301;29;20047;-92
2023/06/24 09:58:05;;;;;;;4.45;4.00;;;;;;;;;;4922408;28;20059;-91
2023/06/24 10:00:37;;;;;;;5.10;4.43;;;;;;;;;;4924660;29;20473;-93
2023/06/24 10:03:04;;;;;;;4.57;4.00;;;;;;;;;;4910645;28;20052;-92
2023/06/24 10:05:30;;;;;;;6.80;5.25;;;;;;;;;;4920150;28;20122;-93
2023/06/24 10:07:59;;;;;;;4.70;4.30;;;;;;;;;;4923935;28;20114;-93
2023/06/24 10:10:26;;;;;;;5.57;4.53;;;;;;;;;;4928303;29;20035;-92
2023/06/24 10:12:52;;;;;;;5.38;4.90;;;;;;;;;;4913076;28;20506;-93
2023/06/24 10:15:18;;;;;;;4.40;3.83;;;;;;;;;;4950084;28;20030;-92
2023/06/24 10:17:45;;;;;;;4.25;3.70;;;;;;;;;;4942637;28;20046;-93
2023/06/24 10:20:12;;;;;;;4.63;3.35;;;;;;;;;;4953284;28;20054;-93
2023/06/24 10:22:38;;;;;;;5.68;4.30;;;;;;;;;;4953346;28;20034;-92
2023/06/24 10:25:07;;;;;;;4.78;4.35;;;;;;;;;;4964301;28;20046;-93
2023/06/24 10:56:27;;;;;;;;;;;;;;;;;;;;;
2023/06/24 11:24:28;;;;;;;;;;;;;;;;;;;;;
2023/06/24 11:47:40;;;;;;;3.88;3.33;;;;;;;;;;5037232;28;20421;-84
2023/06/24 11:50:07;;;;;;;4.22;2.83;;;;;;;;;;5014046;28;20045;-85
2023/06/24 11:56:10;;;;;;;3.00;2.75;;;;;;;;;;4922122;28;20543;-84
2023/06/24 11:58:36;;;;;;;4.10;2.83;;;;;;;;;;4945231;28;20394;-84
2023/06/24 12:01:03;;;;;;;3.28;2.97;;;;;;;;;;4999295;28;23691;-84
2023/06/24 12:03:33;;;;;;;5.70;3.20;;;;;;;;;;4990658;28;20477;-85
2023/06/24 12:06:00;;;;;;;3.45;3.15;;;;;;;;;;5004052;28;20504;-84
2023/06/24 12:08:26;;;;;;;3.60;3.30;;;;;;;;;;5025291;28;20087;-84
2023/06/24 12:11:06;;;;;;;3.40;3.10;;;;;;;;;;5000775;28;20124;-84
2023/06/24 12:13:47;;;;;;;4.70;3.40;;;;;;;;;;5007739;28;20072;-84
2023/06/24 12:16:35;;;;;;;3.42;3.08;;;;;;;;;;5004062;28;20504;-84
2023/06/24 12:19:07;;;;;;;3.78;3.25;;;;;;;;;;5026138;28;20358;-84
2023/06/24 12:21:34;;;;;;;3.72;3.28;;;;;;;;;;5000188;28;20116;-84
2023/06/24 12:24:00;;;;;;;2.92;2.72;;;;;;;;;;5010508;28;20049;-85
2023/06/24 12:26:26;;;;;;;3.75;3.35;;;;;;;;;;5016148;28;20507;-84
2023/06/24 12:28:58;;;;;;;4.65;3.10;;;;;;;;;;4984929;28;20044;-84
2023/06/24 12:31:30;;;;;;;4.22;3.15;;;;;;;;;;4992396;28;20059;-84
2023/06/24 12:34:09;;;;;;;3.92;3.10;;;;;;;;;;4967409;28;20500;-84
2023/06/24 12:36:59;;;;;;;4.33;3.10;;;;;;;;;;4975114;28;20490;-84
2023/06/24 12:39:33;;;;;;;3.85;2.90;;;;;;;;;;4984395;28;20069;-84
2023/06/24 12:41:59;;;;;;;3.58;3.28;;;;;;;;;;4966088;28;20496;-84
2023/06/24 12:44:26;;;;;;;3.85;3.03;;;;;;;;;;4942232;28;20056;-84
2023/06/24 12:46:52;;;;;;;6.22;3.47;;;;;;;;;;4965231;28;20068;-85
2023/06/24 12:49:18;;;;;;;4.45;3.00;;;;;;;;;;4957826;28;20046;-84
2023/06/24 12:51:48;;;;;;;4.07;3.70;;;;;;;;;;4953973;28;20115;-84
2023/06/24 12:54:14;;;;;;;4.20;3.33;;;;;;;;;;4951311;28;20097;-84
2023/06/24 12:56:40;;;;;;;5.00;3.42;;;;;;;;;;4973870;28;20411;-84
2023/06/24 12:59:06;;;;;;;3.83;3.40;;;;;;;;;;4966615;28;20129;-85
2023/06/24 13:01:32;;;;;;;3.90;3.00;;;;;;;;;;4935796;28;20673;-85
2023/06/24 13:04:00;;;;;;;3.28;2.63;;;;;;;;;;4951796;28;20144;-84
2023/06/24 13:06:26;;;;;;;3.42;2.90;;;;;;;;;;4974219;28;20037;-84
2023/06/24 13:08:58;;;;;;;4.47;3.40;;;;;;;;;;4964613;28;20207;-83
2023/06/24 13:11:24;;;;;;;3.20;2.90;;;;;;;;;;4972207;28;20041;-83
2023/06/24 13:13:50;;;;;;;3.80;3.40;;;;;;;;;;4979499;28;20409;-83
2023/06/24 13:16:16;;;;;;;3.42;3.15;;;;;;;;;;4980145;28;20543;-83
2023/06/24 13:19:08;;;;;;;3.60;3.30;;;;;;;;;;4999244;28;20438;-83
2023/06/24 13:21:34;;;;;;;3.42;3.13;;;;;;;;;;4978067;28;20442;-84
2023/06/24 13:24:27;;;;;;;3.38;3.03;;;;;;;;;;4956976;28;20046;-83
2023/06/24 13:26:53;;;;;;;7.35;3.85;;;;;;;;;;4966976;28;20053;-83
2023/06/24 13:29:20;;;;;;;4.47;3.55;;;;;;;;;;4981663;28;21765;-83
2023/06/24 13:31:46;;;;;;;7.28;3.60;;;;;;;;;;4975724;28;20758;-83
2023/06/24 13:34:12;;;;;;;6.13;3.50;;;;;;;;;;4977895;28;20576;-83
2023/06/24 13:36:39;;;;;;;4.85;3.20;;;;;;;;;;4975289;28;20055;-83
2023/06/24 13:39:11;;;;;;;3.40;3.10;;;;;;;;;;4986578;28;21387;-84
2023/06/24 13:41:37;;;;;;;3.45;3.15;;;;;;;;;;5005245;28;20103;-83
2023/06/24 13:44:03;;;;;;;3.80;3.30;;;;;;;;;;4972285;28;20386;-83
2023/06/24 13:46:29;;;;;;;3.88;3.30;;;;;;;;;;5002075;28;20061;-83
2023/06/24 13:48:56;;;;;;;4.35;3.58;;;;;;;;;;4976797;28;20053;-84
2023/06/24 13:51:22;;;;;;;4.00;3.53;;;;;;;;;;4994335;28;20526;-83
2023/06/24 13:53:49;;;;;;;4.25;3.15;;;;;;;;;;4987828;28;20064;-84
2023/06/24 13:56:15;;;;;;;4.72;3.72;;;;;;;;;;4976248;28;20056;-83
2023/06/24 13:58:41;;;;;;;3.30;3.08;;;;;;;;;;5007824;28;20181;-84
2023/06/24 14:01:08;;;;;;;4.25;3.80;;;;;;;;;;4971235;28;20079;-84
2023/06/24 14:03:34;;;;;;;3.80;3.50;;;;;;;;;;4979523;28;20068;-84
2023/06/24 14:06:01;;;;;;;4.60;3.70;;;;;;;;;;4988675;28;20103;-84
2023/06/24 14:08:28;;;;;;;3.90;3.50;;;;;;;;;;5008904;28;21742;-83
2023/06/24 14:10:54;;;;;;;3.70;3.40;;;;;;;;;;4978868;28;20513;-83
2023/06/24 14:13:21;;;;;;;5.40;3.57;;;;;;;;;;4974119;28;20071;-83
2023/06/24 14:15:47;;;;;;;3.85;3.47;;;;;;;;;;4971186;28;20387;-83
2023/06/24 14:18:13;;;;;;;3.92;3.63;;;;;;;;;;4980520;28;20091;-83
2023/06/24 14:20:39;;;;;;;3.88;3.55;;;;;;;;;;4972057;28;20040;-83
2023/06/24 14:23:05;;;;;;;4.15;3.63;;;;;;;;;;4972690;28;20479;-83
2023/06/24 14:25:31;;;;;;;4.15;3.15;;;;;;;;;;4996909;28;20063;-83
2023/06/24 14:27:58;;;;;;;4.93;3.70;;;;;;;;;;4961804;28;20053;-83
2023/06/24 14:30:30;;;;;;;4.65;3.80;;;;;;;;;;4981932;28;20118;-90
2023/06/24 14:32:58;;;;;;;4.22;3.10;;;;;;;;;;4984392;28;20055;-83
2023/06/24 14:35:28;;;;;;;3.40;3.10;;;;;;;;;;4987623;28;20037;-83
2023/06/24 14:37:54;;;;;;;4.00;3.60;;;;;;;;;;4994091;28;20112;-82
2023/06/24 14:40:20;;;;;;;3.70;3.17;;;;;;;;;;4994892;28;20049;-83
2023/06/24 14:42:46;;;;;;;3.42;3.13;;;;;;;;;;5001249;28;20049;-82
2023/06/24 14:45:12;;;;;;;3.83;3.40;;;;;;;;;;5002487;28;20038;-82
2023/06/24 14:47:38;;;;;;;4.10;3.03;;;;;;;;;;4999114;28;20116;-82
2023/06/24 14:50:04;;;;;;;3.85;3.10;;;;;;;;;;4988194;28;20053;-83
2023/06/24 14:52:30;;;;;;;4.45;3.13;;;;;;;;;;4985319;28;20505;-82
2023/06/24 14:54:56;;;;;;;3.17;2.88;;;;;;;;;;4961854;28;20458;-83
2023/06/24 14:57:23;;;;;;;3.20;2.90;;;;;;;;;;4983552;28;20159;-83
2023/06/24 14:59:50;;;;;;;3.78;2.70;;;;;;;;;;4978865;28;20187;-82
2023/06/24 15:02:17;;;;;;;5.25;2.92;;;;;;;;;;5000547;28;20120;-83
2023/06/24 15:04:47;;;;;;;3.50;3.20;;;;;;;;;;5000595;28;20041;-82
2023/06/24 15:07:14;;;;;;;3.35;3.05;;;;;;;;;;5007298;28;20535;-83
2023/06/24 15:09:40;;;;;;;3.65;3.35;;;;;;;;;;4984001;28;20124;-82
2023/06/24 15:12:06;;;;;;;3.25;2.95;;;;;;;;;;4999727;28;20780;-82
2023/06/24 15:14:32;;;;;;;3.53;3.05;;;;;;;;;;4988716;28;20477;-82
2023/06/24 15:16:58;;;;;;;3.17;2.85;;;;;;;;;;4986062;28;20055;-82
2023/06/24 15:19:24;;;;;;;3.60;2.85;;;;;;;;;;4994602;28;20040;-82
2023/06/24 15:21:51;;;;;;;3.10;2.90;;;;;;;;;;4991530;28;20033;-83
2023/06/24 15:24:17;;;;;;;4.07;2.88;;;;;;;;;;5002695;28;20045;-82
2023/06/24 15:26:43;;;;;;;4.10;2.97;;;;;;;;;;5020199;28;20044;-82
2023/06/24 15:29:12;;;;;;;3.53;3.20;;;;;;;;;;5001703;28;20041;-87
2023/06/24 15:31:38;;;;;;;4.50;3.90;;;;;;;;;;4967329;28;20045;-82
2023/06/24 15:34:04;;;;;;;3.25;3.00;;;;;;;;;;4975730;28;20167;-82
2023/06/24 15:36:30;;;;;;;3.28;2.97;;;;;;;;;;5018213;28;21620;-82
2023/06/24 15:38:57;;;;;;;3.13;2.83;;;;;;;;;;5016403;28;20041;-84
2023/06/24 15:41:23;;;;;;;4.27;3.57;;;;;;;;;;4991738;28;20045;-83
2023/06/24 15:43:49;;;;;;;3.83;2.83;;;;;;;;;;4998076;28;20040;-83
2023/06/24 15:46:24;;;;;;;3.42;3.13;;;;;;;;;;4986226;28;20075;-82
2023/06/24 15:48:50;;;;;;;5.03;3.03;;;;;;;;;;4995796;28;20052;-83
2023/06/24 15:51:19;;;;;;;5.68;2.92;;;;;;;;;;4994865;28;20056;-83
2023/06/24 15:53:45;;;;;;;5.32;3.65;;;;;;;;;;4967430;28;20087;-83
2023/06/24 15:56:11;;;;;;;4.57;3.40;;;;;;;;;;4971253;28;20466;-83
2023/06/24 15:58:37;;;;;;;6.88;3.78;;;;;;;;;;4987768;28;20099;-83
2023/06/24 16:01:03;;;;;;;4.05;3.53;;;;;;;;;;4965975;28;20136;-83
2023/06/24 16:03:29;;;;;;;4.25;2.78;;;;;;;;;;4966019;28;20043;-83
2023/06/24 16:05:56;;;;;;;3.35;3.05;;;;;;;;;;4979830;28;20447;-82